Time;durP1;ratioP1;P1;durP2;ratioP2;P2;SDS_P1;SDS_P2;PMS_P1;PMS_P2;Temp;Humidity;BMP_temperature;BMP_pressure;BME280_temperature;BME280_humidity;BME280_pressure;Samples;Min_cycle;Max_cycle;Signal;HPM_P1;HPM_P2
2022/06/04 00:00:42;;;;;;;12.55;8.00;;;16.60;99.90;;;;;;5011307;28;20053;-76
2022/06/04 00:03:07;;;;;;;11.45;8.80;;;16.60;99.90;;;;;;5013266;28;20365;-77
2022/06/04 00:05:37;;;;;;;9.80;8.35;;;16.60;99.90;;;;;;5013251;28;20076;-76
2022/06/04 00:08:05;;;;;;;13.25;9.98;;;16.70;99.90;;;;;;5013066;28;20064;-76
2022/06/04 00:16:04;;;;;;;11.05;8.52;;;16.70;99.90;;;;;;5007317;28;20057;-77
2022/06/04 00:18:29;;;;;;;10.80;9.60;;;16.70;99.90;;;;;;5006661;28;20427;-78
2022/06/04 00:20:57;;;;;;;13.23;9.65;;;16.80;99.90;;;;;;4999893;28;20021;-77
2022/06/04 00:23:23;;;;;;;12.13;8.27;;;16.70;99.90;;;;;;5000377;28;20396;-77
2022/06/04 00:25:53;;;;;;;10.70;8.57;;;16.70;99.90;;;;;;5006775;28;20440;-77
2022/06/04 00:28:21;;;;;;;8.70;7.70;;;16.70;99.90;;;;;;4989366;28;20025;-77
2022/06/04 00:30:47;;;;;;;13.63;7.80;;;16.80;99.90;;;;;;5012949;28;20030;-77
2022/06/04 00:33:14;;;;;;;8.55;7.75;;;16.90;99.90;;;;;;5013386;28;20443;-77
2022/06/04 00:35:40;;;;;;;9.57;7.88;;;16.90;99.90;;;;;;5014217;28;20087;-77
2022/06/04 00:38:07;;;;;;;13.48;8.52;;;16.90;99.90;;;;;;5000702;28;20065;-77
2022/06/04 00:40:43;;;;;;;10.70;7.85;;;16.80;99.90;;;;;;5011801;28;20026;-77
2022/06/04 00:43:09;;;;;;;10.88;8.82;;;16.80;99.90;;;;;;4981611;28;20030;-76
2022/06/04 00:45:35;;;;;;;10.02;7.55;;;16.90;99.90;;;;;;5004202;28;20030;-77
2022/06/04 00:48:07;;;;;;;14.52;8.73;;;16.90;99.90;;;;;;5008350;28;20041;-76
2022/06/04 00:50:38;;;;;;;11.38;8.75;;;16.80;99.90;;;;;;5011185;28;20026;-76
2022/06/04 00:53:07;;;;;;;12.07;8.63;;;16.80;99.90;;;;;;5007659;28;20026;-76
2022/06/04 00:56:08;;;;;;;11.98;8.70;;;16.70;99.90;;;;;;4984388;28;20019;-77
2022/06/04 00:59:15;;;;;;;10.20;8.20;;;16.80;99.90;;;;;;5002321;28;20018;-78
2022/06/04 01:01:59;;;;;;;11.25;8.45;;;16.80;99.90;;;;;;4934953;28;20145;-78
2022/06/04 01:04:48;;;;;;;15.35;9.52;;;16.70;99.90;;;;;;5011048;28;20089;-78
2022/06/04 01:07:34;;;;;;;9.13;8.23;;;16.60;99.90;;;;;;4990403;28;20061;-79
2022/06/04 01:10:40;;;;;;;10.07;9.00;;;16.60;99.90;;;;;;4987105;28;20026;-78
2022/06/04 01:13:17;;;;;;;11.10;8.50;;;16.50;99.90;;;;;;4989659;28;20034;-78
2022/06/04 01:15:57;;;;;;;9.70;8.63;;;16.40;99.90;;;;;;5014225;28;20152;-78
2022/06/04 01:19:03;;;;;;;9.50;8.07;;;16.60;99.90;;;;;;5003620;28;20022;-77
2022/06/04 01:21:48;;;;;;;17.27;9.73;;;16.70;99.90;;;;;;4987307;28;20021;-76
2022/06/04 01:24:40;;;;;;;13.52;11.52;;;16.60;99.90;;;;;;5007593;28;20049;-77
2022/06/04 01:27:28;;;;;;;15.80;11.05;;;16.50;99.90;;;;;;4976780;28;20030;-77
2022/06/04 01:30:03;;;;;;;15.15;10.32;;;16.50;99.90;;;;;;5016292;28;20034;-77
2022/06/04 01:32:35;;;;;;;17.88;11.18;;;16.50;99.90;;;;;;4985479;28;20056;-77
2022/06/04 01:35:19;;;;;;;11.40;9.95;;;16.50;99.90;;;;;;5015837;28;20064;-77
2022/06/04 01:38:01;;;;;;;11.40;9.38;;;16.40;99.90;;;;;;5013343;28;20044;-76
2022/06/04 01:43:20;;;;;;;11.07;9.30;;;16.40;99.90;;;;;;5002437;28;20442;-76
2022/06/04 01:45:49;;;;;;;14.77;10.35;;;16.60;99.90;;;;;;5014416;28;20034;-76
2022/06/04 01:48:16;;;;;;;14.98;12.05;;;16.50;99.90;;;;;;5015528;28;20399;-76
2022/06/04 01:50:47;;;;;;;13.63;9.45;;;16.40;99.90;;;;;;5014772;28;20030;-76
2022/06/04 01:53:16;;;;;;;12.10;10.25;;;16.40;99.90;;;;;;5001979;28;20029;-76
2022/06/04 01:55:51;;;;;;;18.58;14.35;;;16.20;99.90;;;;;;5005262;28;20031;-76
2022/06/04 01:58:31;;;;;;;11.18;8.90;;;16.00;99.90;;;;;;5016550;28;20014;-77
2022/06/04 02:01:03;;;;;;;9.95;8.85;;;16.00;99.90;;;;;;5016723;28;20038;-75
2022/06/04 02:03:40;;;;;;;11.13;9.88;;;16.00;99.90;;;;;;5016402;28;20134;-76
2022/06/04 02:06:26;;;;;;;10.70;8.65;;;16.10;99.90;;;;;;4984926;28;20388;-76
2022/06/04 02:08:59;;;;;;;11.50;8.55;;;16.10;99.90;;;;;;4985073;28;20034;-77
2022/06/04 02:11:25;;;;;;;17.02;10.93;;;16.00;99.90;;;;;;5014705;28;20033;-76
2022/06/04 02:13:54;;;;;;;13.95;11.45;;;16.00;99.90;;;;;;5001498;28;20034;-76
2022/06/04 02:16:28;;;;;;;194.40;18.35;;;15.80;99.90;;;;;;5003041;28;20041;-78
2022/06/04 02:18:56;;;;;;;18.73;12.35;;;15.20;99.90;;;;;;5001809;28;20531;-77
2022/06/04 02:21:23;;;;;;;12.57;10.02;;;15.10;99.90;;;;;;4987598;28;20113;-76
2022/06/04 02:23:49;;;;;;;15.10;11.80;;;15.30;99.90;;;;;;4991345;28;20076;-76
2022/06/04 02:26:16;;;;;;;12.68;9.55;;;15.40;99.90;;;;;;4990314;28;20440;-76
2022/06/04 02:28:42;;;;;;;10.38;9.38;;;15.60;99.90;;;;;;5015405;28;20022;-78
2022/06/04 02:31:18;;;;;;;11.57;9.35;;;15.60;99.90;;;;;;5007576;28;20161;-77
2022/06/04 02:34:15;;;;;;;10.82;8.80;;;15.60;99.90;;;;;;5015891;28;20045;-78
2022/06/04 02:36:55;;;;;;;12.88;9.63;;;15.70;99.90;;;;;;5009918;28;20058;-77
2022/06/04 02:39:29;;;;;;;8.98;8.07;;;15.70;99.90;;;;;;5003737;28;20029;-77
2022/06/04 02:42:03;;;;;;;9.52;8.40;;;15.60;99.90;;;;;;4998782;28;20026;-77
2022/06/04 02:44:41;;;;;;;10.25;9.20;;;15.70;99.90;;;;;;4998657;28;20544;-75
2022/06/04 02:47:14;;;;;;;12.60;8.43;;;15.70;99.90;;;;;;5007684;28;20022;-75
2022/06/04 02:49:53;;;;;;;16.13;9.20;;;15.60;99.90;;;;;;5014365;28;20076;-75
2022/06/04 02:52:20;;;;;;;9.63;8.10;;;15.70;99.90;;;;;;5003342;28;20030;-74
2022/06/04 02:54:58;;;;;;;13.30;7.57;;;15.60;99.90;;;;;;4990450;28;20030;-75
2022/06/04 02:57:26;;;;;;;9.65;8.32;;;15.50;99.90;;;;;;5006657;28;20028;-74
2022/06/04 02:59:54;;;;;;;25.15;10.73;;;15.70;99.90;;;;;;5000812;28;20033;-75
2022/06/04 03:02:21;;;;;;;19.33;11.23;;;15.40;99.90;;;;;;4983710;28;20453;-74
2022/06/04 03:04:50;;;;;;;13.13;9.25;;;15.40;99.90;;;;;;5013393;28;20045;-75
2022/06/04 03:07:18;;;;;;;9.93;8.77;;;15.50;99.90;;;;;;5014273;28;20026;-76
2022/06/04 03:09:44;;;;;;;15.00;9.65;;;15.40;99.90;;;;;;4983377;28;20025;-76
2022/06/04 03:12:14;;;;;;;10.85;9.23;;;15.50;99.90;;;;;;5000411;28;20042;-76
2022/06/04 03:14:40;;;;;;;10.45;9.45;;;15.60;99.90;;;;;;5008903;28;20495;-76
2022/06/04 03:17:10;;;;;;;9.60;8.25;;;15.60;99.90;;;;;;5013920;28;20030;-76
2022/06/04 03:19:36;;;;;;;9.27;8.38;;;15.70;99.90;;;;;;5013866;28;20022;-76
2022/06/04 03:22:02;;;;;;;9.95;8.93;;;15.80;99.90;;;;;;5000754;28;20019;-75
2022/06/04 03:24:28;;;;;;;9.70;8.90;;;15.70;99.90;;;;;;5013602;28;20021;-75
2022/06/04 03:26:54;;;;;;;11.77;9.52;;;15.60;99.90;;;;;;5013452;28;20499;-76
2022/06/04 03:29:19;;;;;;;11.60;8.73;;;15.60;99.90;;;;;;5006470;28;20037;-75
2022/06/04 03:31:45;;;;;;;10.63;9.57;;;15.60;99.90;;;;;;4988711;28;20054;-75
2022/06/04 03:34:12;;;;;;;10.75;9.60;;;15.70;99.90;;;;;;4994701;28;20019;-77
2022/06/04 03:36:39;;;;;;;12.43;9.43;;;15.70;99.90;;;;;;4989841;28;20025;-76
2022/06/04 03:39:06;;;;;;;13.48;9.80;;;15.80;99.90;;;;;;4984008;28;20057;-76
2022/06/04 03:41:31;;;;;;;13.68;10.85;;;15.90;99.90;;;;;;4995929;28;20080;-77
2022/06/04 03:43:57;;;;;;;15.27;10.25;;;15.90;99.90;;;;;;5013714;28;20025;-76
2022/06/04 03:46:24;;;;;;;12.10;10.60;;;15.90;99.90;;;;;;5012571;28;20030;-76
2022/06/04 03:48:51;;;;;;;16.42;11.63;;;15.90;99.90;;;;;;5000706;28;20040;-77
2022/06/04 03:51:17;;;;;;;12.95;11.57;;;15.80;99.90;;;;;;5012493;28;20022;-75
2022/06/04 03:53:42;;;;;;;14.30;12.07;;;15.50;99.90;;;;;;4987201;28;20053;-75
2022/06/04 03:56:08;;;;;;;16.55;11.55;;;15.40;99.90;;;;;;4996129;28;20038;-76
2022/06/04 03:58:34;;;;;;;10.95;9.85;;;15.40;99.90;;;;;;5013411;28;20083;-76
2022/06/04 04:01:00;;;;;;;15.60;11.02;;;15.30;99.90;;;;;;4997482;28;20026;-76
2022/06/04 04:03:25;;;;;;;11.85;10.65;;;15.40;99.90;;;;;;5010453;28;20037;-75
2022/06/04 04:05:54;;;;;;;11.57;10.30;;;15.40;99.90;;;;;;5011433;28;20032;-75
2022/06/04 04:08:23;;;;;;;13.23;11.82;;;15.60;99.90;;;;;;5005764;28;20040;-77
2022/06/04 04:10:49;;;;;;;13.65;11.07;;;15.60;99.90;;;;;;5009929;28;20033;-75
2022/06/04 04:13:16;;;;;;;17.83;11.63;;;15.60;99.90;;;;;;4984397;28;20100;-76
2022/06/04 04:15:42;;;;;;;10.95;9.82;;;15.70;99.90;;;;;;4999524;28;20041;-77
2022/06/04 04:18:09;;;;;;;10.18;9.18;;;15.80;99.90;;;;;;5012919;28;20026;-76
2022/06/04 04:20:37;;;;;;;14.80;10.02;;;15.90;99.90;;;;;;5012169;28;20014;-76
2022/06/04 04:23:05;;;;;;;14.75;10.00;;;16.00;99.90;;;;;;5012578;28;20034;-77
2022/06/04 04:25:32;;;;;;;14.40;11.10;;;16.00;99.90;;;;;;4999352;28;20080;-77
2022/06/04 04:27:59;;;;;;;12.70;11.18;;;16.00;99.90;;;;;;5003361;28;20023;-77
2022/06/04 04:30:27;;;;;;;17.75;14.80;;;15.90;99.90;;;;;;5005379;28;20038;-77
2022/06/04 04:32:53;;;;;;;12.48;11.20;;;15.90;99.90;;;;;;5003077;28;20081;-78
2022/06/04 04:35:22;;;;;;;16.63;13.57;;;15.90;99.90;;;;;;4999134;28;20495;-78
2022/06/04 04:37:48;;;;;;;16.77;13.50;;;15.90;99.90;;;;;;4984547;28;20030;-76
2022/06/04 04:40:17;;;;;;;12.90;11.60;;;15.70;99.90;;;;;;5009329;28;20068;-77
2022/06/04 04:42:43;;;;;;;12.60;11.45;;;15.60;99.90;;;;;;5012359;28;20029;-77
2022/06/04 04:45:09;;;;;;;11.00;9.73;;;15.90;99.90;;;;;;5007998;28;20022;-77
2022/06/04 04:47:37;;;;;;;13.00;11.10;;;15.90;99.90;;;;;;5003657;28;20037;-77
2022/06/04 04:50:05;;;;;;;15.13;12.63;;;16.00;99.90;;;;;;4999304;28;20022;-77
2022/06/04 04:52:31;;;;;;;15.55;12.68;;;15.90;99.90;;;;;;5011595;28;20026;-77
2022/06/04 04:54:57;;;;;;;14.07;12.65;;;15.60;99.90;;;;;;5006700;28;20026;-76
2022/06/04 04:57:22;;;;;;;15.55;13.95;;;15.70;99.90;;;;;;5004830;28;20026;-77
2022/06/04 04:59:48;;;;;;;14.18;12.57;;;15.80;99.90;;;;;;4998327;28;20111;-77
2022/06/04 05:02:14;;;;;;;17.17;12.40;;;15.80;99.90;;;;;;4992453;28;20037;-77
2022/06/04 05:04:39;;;;;;;14.57;12.02;;;16.10;99.90;;;;;;5011990;28;20037;-77
2022/06/04 05:07:05;;;;;;;14.35;10.93;;;16.30;99.90;;;;;;5003575;28;20472;-77
2022/06/04 05:09:31;;;;;;;12.30;11.00;;;16.60;99.90;;;;;;5009258;28;20038;-77
2022/06/04 05:11:57;;;;;;;16.73;12.32;;;16.60;99.90;;;;;;5012863;28;20377;-76
2022/06/04 05:14:22;;;;;;;14.65;13.15;;;16.60;99.90;;;;;;4990739;28;20484;-77
2022/06/04 05:16:48;;;;;;;14.68;13.15;;;16.60;99.90;;;;;;5006084;28;20377;-77
2022/06/04 05:19:14;;;;;;;16.58;14.60;;;16.50;99.90;;;;;;4997406;28;20045;-77
2022/06/04 05:21:47;;;;;;;16.13;14.43;;;16.40;99.90;;;;;;5014101;28;20027;-75
2022/06/04 05:24:18;;;;;;;16.20;14.48;;;16.50;99.90;;;;;;4999015;28;20105;-75
2022/06/04 05:26:45;;;;;;;15.98;14.27;;;16.80;99.90;;;;;;4999796;28;20033;-75
2022/06/04 05:29:11;;;;;;;19.30;14.65;;;16.80;99.90;;;;;;5011865;28;20038;-75
2022/06/04 05:31:37;;;;;;;18.40;14.68;;;17.00;99.90;;;;;;4980584;28;20034;-76
2022/06/04 05:34:03;;;;;;;18.27;16.30;;;17.00;99.90;;;;;;4986278;28;20029;-76
2022/06/04 05:36:29;;;;;;;16.90;14.57;;;17.00;99.90;;;;;;5005145;28;20018;-76
2022/06/04 05:38:55;;;;;;;19.80;15.95;;;17.10;99.90;;;;;;5008731;28;20026;-76
2022/06/04 05:41:21;;;;;;;15.45;13.95;;;17.20;99.90;;;;;;5011172;28;20022;-75
2022/06/04 05:43:47;;;;;;;15.95;14.18;;;17.30;99.90;;;;;;5011705;28;20054;-75
2022/06/04 05:46:14;;;;;;;18.05;14.55;;;16.90;99.90;;;;;;5011614;28;20496;-76
2022/06/04 05:48:42;;;;;;;19.65;15.00;;;17.00;99.90;;;;;;5005759;28;20026;-76
2022/06/04 05:51:14;;;;;;;16.17;14.13;;;17.20;99.90;;;;;;5010101;28;20034;-76
2022/06/04 05:53:39;;;;;;;16.83;12.85;;;17.30;99.90;;;;;;5005689;28;20168;-76
2022/06/04 05:56:11;;;;;;;13.50;12.10;;;17.60;99.90;;;;;;5011681;28;20458;-76
2022/06/04 05:58:37;;;;;;;14.73;13.10;;;17.70;99.90;;;;;;4985271;28;20045;-76
2022/06/04 06:01:03;;;;;;;15.68;13.90;;;17.60;99.90;;;;;;5004409;28;20472;-76
2022/06/04 06:03:28;;;;;;;14.05;12.60;;;17.60;99.90;;;;;;4983064;28;20105;-76
2022/06/04 06:05:54;;;;;;;14.02;12.52;;;17.80;99.90;;;;;;4998222;28;20469;-77
2022/06/04 06:08:19;;;;;;;15.98;13.10;;;17.80;99.90;;;;;;5011564;28;20447;-77
2022/06/04 06:10:45;;;;;;;14.45;12.60;;;18.00;99.90;;;;;;5010445;28;20045;-76
2022/06/04 06:13:11;;;;;;;14.20;12.73;;;18.10;99.90;;;;;;4986343;28;20112;-77
2022/06/04 06:15:37;;;;;;;14.00;11.60;;;18.00;99.90;;;;;;5001897;28;20388;-78
2022/06/04 06:18:04;;;;;;;13.38;12.02;;;18.00;99.90;;;;;;5015212;28;20064;-75
2022/06/04 06:20:30;;;;;;;12.95;11.70;;;18.10;99.90;;;;;;4997271;28;20026;-77
2022/06/04 06:22:55;;;;;;;16.08;13.00;;;18.10;99.90;;;;;;5006253;28;20400;-75
2022/06/04 06:25:21;;;;;;;14.65;13.07;;;18.20;99.90;;;;;;4980897;28;20029;-75
2022/06/04 06:27:47;;;;;;;13.57;12.23;;;18.20;99.90;;;;;;5014803;28;20125;-76
2022/06/04 06:30:13;;;;;;;12.13;10.93;;;18.50;99.90;;;;;;5014457;28;20030;-76
2022/06/04 06:32:40;;;;;;;12.68;11.45;;;18.50;99.90;;;;;;5014501;28;20113;-76
2022/06/04 06:35:06;;;;;;;12.90;11.50;;;18.60;99.90;;;;;;5001560;28;20029;-76
2022/06/04 06:37:32;;;;;;;12.43;11.18;;;18.60;99.90;;;;;;5016383;28;20022;-77
2022/06/04 06:39:57;;;;;;;17.48;13.13;;;18.40;99.90;;;;;;5013379;28;20663;-76
2022/06/04 06:42:23;;;;;;;13.52;12.13;;;18.80;99.90;;;;;;4987309;28;20022;-76
2022/06/04 06:44:49;;;;;;;12.55;11.35;;;18.40;99.90;;;;;;5016030;28;20045;-76
2022/06/04 06:47:15;;;;;;;15.05;12.75;;;18.40;99.90;;;;;;5007297;28;20026;-77
2022/06/04 06:49:41;;;;;;;13.45;12.05;;;18.30;99.90;;;;;;5011662;28;20083;-76
2022/06/04 06:52:08;;;;;;;14.32;12.82;;;18.30;99.90;;;;;;5014404;28;20108;-76
2022/06/04 06:54:36;;;;;;;15.88;13.05;;;18.50;99.90;;;;;;5015336;28;20105;-75
2022/06/04 06:57:05;;;;;;;15.10;11.95;;;18.60;99.90;;;;;;5002289;28;20033;-76
2022/06/04 06:59:30;;;;;;;12.15;10.93;;;18.70;99.90;;;;;;5015097;28;20164;-77
2022/06/04 07:01:57;;;;;;;13.13;11.93;;;18.90;99.90;;;;;;5002767;28;20117;-76
2022/06/04 07:04:25;;;;;;;12.73;11.43;;;19.00;99.90;;;;;;5014906;28;20022;-76
2022/06/04 07:06:53;;;;;;;12.40;11.20;;;19.20;99.90;;;;;;5014888;28;20110;-75
2022/06/04 07:09:28;;;;;;;12.32;11.13;;;19.30;99.90;;;;;;5015363;28;20032;-77
2022/06/04 07:11:54;;;;;;;12.80;11.50;;;19.30;99.90;;;;;;5005670;28;20399;-76
2022/06/04 07:14:22;;;;;;;15.50;11.55;;;19.30;99.90;;;;;;5008176;28;20356;-76
2022/06/04 07:16:49;;;;;;;12.98;11.55;;;19.60;99.90;;;;;;5013935;28;20395;-76
2022/06/04 07:19:16;;;;;;;12.02;10.70;;;19.90;99.90;;;;;;4997358;28;20018;-73
2022/06/04 07:21:42;;;;;;;12.40;10.73;;;20.20;99.90;;;;;;4998865;28;20025;-71
2022/06/04 07:24:08;;;;;;;13.02;11.60;;;20.10;99.90;;;;;;5013394;28;20084;-75
2022/06/04 07:26:34;;;;;;;12.90;10.60;;;19.80;99.90;;;;;;5013895;28;20026;-75
2022/06/04 07:29:00;;;;;;;13.02;11.73;;;20.00;99.90;;;;;;4999494;28;20032;-76
2022/06/04 07:31:26;;;;;;;13.20;11.90;;;20.10;99.90;;;;;;5013283;28;20498;-75
2022/06/04 07:33:53;;;;;;;13.40;12.02;;;20.00;99.90;;;;;;5013835;28;20511;-76
2022/06/04 07:36:31;;;;;;;13.75;12.30;;;19.30;99.90;;;;;;5004053;28;20054;-76
2022/06/04 07:38:57;;;;;;;13.57;12.10;;;19.20;99.90;;;;;;5001906;28;20018;-76
2022/06/04 07:41:28;;;;;;;15.00;12.35;;;19.40;99.90;;;;;;5000465;28;20029;-76
2022/06/04 07:43:54;;;;;;;13.20;11.77;;;19.40;99.90;;;;;;4993993;28;20076;-76
2022/06/04 07:46:21;;;;;;;14.63;13.23;;;19.60;99.90;;;;;;5006936;28;20022;-76
2022/06/04 07:48:47;;;;;;;14.25;12.75;;;19.60;99.90;;;;;;5002097;28;20495;-76
2022/06/04 07:51:13;;;;;;;16.58;13.13;;;19.80;99.90;;;;;;4995639;28;20109;-76
2022/06/04 07:53:39;;;;;;;14.40;12.60;;;19.20;99.90;;;;;;5007164;28;20369;-75
2022/06/04 07:56:10;;;;;;;13.75;12.20;;;19.70;99.90;;;;;;4995551;28;20033;-75
2022/06/04 07:58:36;;;;;;;12.65;11.45;;;19.80;99.90;;;;;;5013225;28;20030;-76
2022/06/04 08:01:03;;;;;;;12.90;11.70;;;20.20;99.90;;;;;;5012169;28;20084;-76
2022/06/04 08:03:31;;;;;;;13.20;11.43;;;20.30;99.90;;;;;;5013154;28;20729;-76
2022/06/04 08:05:56;;;;;;;13.27;11.98;;;20.40;99.90;;;;;;5012875;28;20084;-75
2022/06/04 08:08:22;;;;;;;16.08;12.35;;;20.30;99.90;;;;;;5013299;28;20033;-76
2022/06/04 08:10:49;;;;;;;12.82;11.52;;;20.00;99.90;;;;;;5012550;28;20072;-77
2022/06/04 08:15:50;;;;;;;13.23;11.93;;;19.90;99.90;;;;;;5009125;28;20018;-76
2022/06/04 08:18:16;;;;;;;12.32;11.13;;;20.00;99.90;;;;;;5003885;28;20432;-76
2022/06/04 08:20:42;;;;;;;12.93;11.63;;;20.10;99.90;;;;;;4999018;28;20030;-76
2022/06/04 08:23:09;;;;;;;13.52;11.40;;;20.10;99.90;;;;;;5002475;28;20030;-76
2022/06/04 08:25:38;;;;;;;12.98;11.77;;;20.40;99.90;;;;;;5010323;28;20068;-76
2022/06/04 08:28:04;;;;;;;14.30;12.30;;;20.30;99.90;;;;;;5002979;28;20096;-76
2022/06/04 08:30:30;;;;;;;12.73;11.43;;;20.30;99.90;;;;;;4997451;28;20547;-76
2022/06/04 08:32:55;;;;;;;13.85;12.43;;;20.50;99.90;;;;;;5011370;28;20038;-76
2022/06/04 08:35:21;;;;;;;13.55;12.27;;;20.50;99.90;;;;;;4997156;28;20112;-76
2022/06/04 08:37:47;;;;;;;13.77;12.13;;;20.80;99.90;;;;;;5012814;28;20116;-76
2022/06/04 08:40:33;;;;;;;13.60;12.18;;;20.60;99.90;;;;;;5012402;28;20036;-73
2022/06/04 08:43:13;;;;;;;;;;;20.30;99.90;;;;;;5013113;28;20034;-76
2022/06/04 08:45:39;;;;;;;13.60;12.30;;;20.10;99.90;;;;;;5006182;28;19905;-76
2022/06/04 08:48:14;;;;;;;12.68;11.57;;;20.20;99.90;;;;;;4998780;28;20026;-76
2022/06/04 08:50:40;;;;;;;13.85;12.48;;;20.30;99.90;;;;;;4993923;28;20033;-76
2022/06/04 08:53:13;;;;;;;13.20;11.82;;;20.20;99.90;;;;;;4994380;28;20499;-76
2022/06/04 08:59:13;;;;;;;13.60;12.18;;;20.60;99.90;;;;;;5006669;28;20040;-76
2022/06/04 09:01:45;;;;;;;13.70;12.30;;;20.70;99.90;;;;;;5006312;28;20022;-76
2022/06/04 09:04:38;;;;;;;13.90;12.55;;;20.90;99.90;;;;;;5012140;28;20041;-76
2022/06/04 09:07:17;;;;;;;14.05;12.68;;;20.50;99.90;;;;;;5012199;28;20024;-77
2022/06/04 09:10:13;;;;;;;13.80;12.43;;;20.60;99.90;;;;;;4999236;28;20018;-76
2022/06/04 09:13:16;;;;;;;14.45;12.20;;;20.40;99.90;;;;;;5009033;28;20113;-75
2022/06/04 09:15:49;;;;;;;13.60;12.20;;;20.60;99.90;;;;;;5011976;28;20492;-76
2022/06/04 09:18:32;;;;;;;13.85;12.40;;;20.40;99.90;;;;;;5001270;28;20366;-76
2022/06/04 09:21:01;;;;;;;14.98;13.52;;;20.60;99.90;;;;;;4987394;28;20029;-76
2022/06/04 09:23:30;;;;;;;15.68;13.65;;;20.80;99.90;;;;;;4987890;28;20510;-76
2022/06/04 09:26:14;;;;;;;15.73;14.10;;;20.70;99.90;;;;;;4999126;28;20034;-76
2022/06/04 09:28:51;;;;;;;15.90;14.20;;;20.70;99.90;;;;;;5011665;28;20618;-76
2022/06/04 09:31:32;;;;;;;16.50;15.00;;;20.70;99.90;;;;;;5001857;28;20117;-75
2022/06/04 09:34:19;;;;;;;16.35;14.65;;;20.60;99.90;;;;;;4997706;28;20029;-76
2022/06/04 09:36:46;;;;;;;16.20;14.55;;;20.80;99.90;;;;;;5011515;28;20044;-76
2022/06/04 09:39:35;;;;;;;16.95;15.27;;;20.60;99.90;;;;;;5011387;28;20026;-76
2022/06/04 09:42:03;;;;;;;15.82;13.98;;;20.60;99.90;;;;;;5010924;28;20048;-76
2022/06/04 09:44:31;;;;;;;18.42;14.38;;;20.80;99.90;;;;;;5010381;28;20057;-75
2022/06/04 09:47:17;;;;;;;15.48;13.93;;;20.90;99.90;;;;;;5012603;28;20072;-76
2022/06/04 09:49:51;;;;;;;16.38;14.77;;;20.90;99.90;;;;;;5010523;28;20091;-76
2022/06/04 09:52:29;;;;;;;15.68;14.13;;;21.00;99.90;;;;;;5014703;28;20033;-76
2022/06/04 09:54:58;;;;;;;16.27;14.73;;;21.10;99.90;;;;;;4994059;28;20023;-76
2022/06/04 09:57:35;;;;;;;15.40;13.77;;;21.50;99.90;;;;;;5007918;28;20022;-74
2022/06/04 10:00:25;;;;;;;16.85;15.25;;;21.60;99.90;;;;;;5002907;28;20018;-76
2022/06/04 10:03:16;;;;;;;16.17;14.60;;;21.30;99.90;;;;;;5014496;28;20034;-76
2022/06/04 10:06:07;;;;;;;18.23;16.42;;;21.40;99.90;;;;;;5015204;28;20058;-76
2022/06/04 10:11:22;;;;;;;16.83;15.18;;;21.50;99.90;;;;;;5002057;28;20080;-76
2022/06/04 10:13:56;;;;;;;16.98;15.27;;;21.50;99.90;;;;;;5014829;28;20030;-75
2022/06/04 10:16:23;;;;;;;16.65;15.02;;;21.80;99.90;;;;;;5008643;28;20022;-75
2022/06/04 10:19:01;;;;;;;15.90;14.25;;;21.60;99.90;;;;;;5009004;28;20026;-76
2022/06/04 10:21:36;;;;;;;17.48;15.13;;;21.70;99.90;;;;;;5014225;28;20028;-76
2022/06/04 10:24:17;;;;;;;16.73;14.98;;;21.80;99.90;;;;;;5010515;28;20062;-76
2022/06/04 10:27:21;;;;;;;15.32;13.93;;;21.70;99.90;;;;;;5012144;28;20026;-76
2022/06/04 10:29:52;;;;;;;14.98;13.57;;;21.80;99.90;;;;;;5014402;28;20014;-76
2022/06/04 10:32:40;;;;;;;15.38;13.77;;;21.70;99.90;;;;;;5009286;28;20038;-76
2022/06/04 10:35:19;;;;;;;15.68;13.80;;;21.90;99.90;;;;;;5002845;28;20018;-76
2022/06/04 10:37:53;;;;;;;14.65;13.20;;;21.80;99.90;;;;;;5015766;28;20054;-75
2022/06/04 10:40:31;;;;;;;15.65;14.15;;;21.80;99.90;;;;;;5015711;28;20435;-75
2022/06/04 10:43:15;;;;;;;14.43;13.02;;;22.10;99.90;;;;;;5015832;28;20568;-76
2022/06/04 10:45:51;;;;;;;14.48;13.00;;;22.00;99.90;;;;;;5017132;28;20615;-76
2022/06/04 10:48:30;;;;;;;13.88;12.43;;;22.30;99.90;;;;;;4997185;28;20133;-75
2022/06/04 10:51:27;;;;;;;16.35;13.50;;;22.30;99.90;;;;;;5011336;28;20025;-76
2022/06/04 10:53:56;;;;;;;14.10;12.80;;;22.00;99.90;;;;;;5010311;28;20022;-76
2022/06/04 10:56:39;;;;;;;14.38;12.95;;;21.90;99.90;;;;;;5000852;28;20049;-76
2022/06/04 10:59:14;;;;;;;14.48;13.15;;;22.40;99.90;;;;;;5018783;28;20022;-76
2022/06/04 11:01:48;;;;;;;13.50;12.30;;;22.50;99.90;;;;;;5003271;28;20235;-76
2022/06/04 11:04:36;;;;;;;14.05;12.65;;;22.50;99.90;;;;;;5012124;28;20042;-77
2022/06/04 11:07:20;;;;;;;13.43;12.05;;;22.40;99.90;;;;;;5006396;28;20065;-76
2022/06/04 11:09:48;;;;;;;12.90;11.60;;;22.60;99.90;;;;;;5000467;28;20045;-77
2022/06/04 11:12:33;;;;;;;13.85;12.45;;;22.70;99.90;;;;;;5012231;28;20029;-76
2022/06/04 11:15:13;;;;;;;13.82;12.48;;;22.70;99.90;;;;;;4994485;28;20022;-76
2022/06/04 11:17:56;;;;;;;13.80;12.48;;;22.50;99.90;;;;;;4990008;28;20030;-76
2022/06/04 11:20:31;;;;;;;12.60;11.30;;;22.50;99.90;;;;;;5006721;28;20033;-76
2022/06/04 11:23:15;;;;;;;13.65;11.40;;;22.80;99.90;;;;;;4985859;28;20419;-76
2022/06/04 11:25:46;;;;;;;13.43;12.13;;;22.60;99.90;;;;;;5000702;28;20491;-76
2022/06/04 11:28:21;;;;;;;13.80;12.30;;;22.60;99.90;;;;;;5001199;28;20026;-77
2022/06/04 11:31:16;;;;;;;13.43;12.02;;;22.30;99.90;;;;;;5012819;28;20384;-76
2022/06/04 11:34:01;;;;;;;13.60;12.40;;;22.30;99.90;;;;;;4982772;28;20021;-76
2022/06/04 11:36:45;;;;;;;13.13;11.65;;;22.30;99.90;;;;;;5000408;28;20026;-77
2022/06/04 11:40:01;;;;;;;13.27;11.80;;;22.40;99.90;;;;;;5004637;28;20029;-76
2022/06/04 11:42:36;;;;;;;13.35;11.95;;;22.60;99.90;;;;;;5002350;28;20030;-76
2022/06/04 11:45:23;;;;;;;12.95;11.73;;;22.50;99.90;;;;;;5013433;28;20022;-77
2022/06/04 11:48:15;;;;;;;12.10;11.00;;;22.40;99.90;;;;;;5000206;28;20580;-76
2022/06/04 11:50:52;;;;;;;13.45;11.75;;;22.50;99.90;;;;;;5012565;28;20029;-77
2022/06/04 11:53:36;;;;;;;13.48;12.20;;;22.60;99.90;;;;;;5013219;28;20544;-77
2022/06/04 11:56:16;;;;;;;13.10;11.82;;;22.70;99.90;;;;;;5006440;28;20117;-77
2022/06/04 11:59:09;;;;;;;12.52;11.32;;;22.60;99.90;;;;;;4986052;28;20445;-76
2022/06/04 12:01:38;;;;;;;10.93;9.82;;;22.80;99.90;;;;;;5006282;28;20026;-77
2022/06/04 12:04:16;;;;;;;11.60;10.60;;;23.40;99.90;;;;;;4999850;28;20026;-77
2022/06/04 12:06:50;;;;;;;12.52;11.23;;;23.20;99.90;;;;;;5000992;28;20025;-76
2022/06/04 12:09:30;;;;;;;12.18;10.38;;;23.10;99.90;;;;;;4995009;28;20121;-77
2022/06/04 12:12:06;;;;;;;12.13;11.00;;;23.10;99.90;;;;;;4975206;28;20046;-77
2022/06/04 12:14:37;;;;;;;;;;;23.00;99.90;;;;;;5009201;28;20502;-77
2022/06/04 12:17:37;;;;;;;12.52;10.18;;;22.80;99.90;;;;;;5000684;28;19913;-77
2022/06/04 12:26:34;;;;;;;10.43;9.48;;;22.60;99.90;;;;;;5005741;28;20068;-77
2022/06/04 12:29:00;;;;;;;9.98;8.98;;;22.70;99.90;;;;;;5010980;28;20033;-76
2022/06/04 12:31:37;;;;;;;10.13;9.25;;;22.50;99.90;;;;;;5011405;28;20037;-76
2022/06/04 12:34:39;;;;;;;9.40;8.50;;;22.70;99.90;;;;;;4999534;28;20033;-76
2022/06/04 12:37:22;;;;;;;9.45;8.65;;;23.00;99.90;;;;;;4917988;29;20035;-76
2022/06/04 12:39:48;;;;;;;8.50;7.80;;;23.10;99.90;;;;;;5004190;28;20041;-76
2022/06/04 12:42:22;;;;;;;8.50;7.80;;;23.40;99.90;;;;;;5003078;28;20038;-76
2022/06/04 12:45:00;;;;;;;8.00;7.28;;;23.70;99.90;;;;;;5005071;28;20026;-77
2022/06/04 12:47:30;;;;;;;8.90;7.35;;;23.60;99.90;;;;;;5002889;28;20099;-76
2022/06/04 12:50:14;;;;;;;9.50;7.40;;;23.60;99.90;;;;;;5012461;28;20088;-76
2022/06/04 12:52:57;;;;;;;8.10;7.40;;;23.60;99.90;;;;;;5000503;28;20050;-76
2022/06/04 12:55:36;;;;;;;8.43;7.63;;;23.40;99.90;;;;;;4983935;28;20065;-76
2022/06/04 12:58:03;;;;;;;9.25;8.35;;;23.30;99.90;;;;;;5012131;28;20022;-76
2022/06/04 13:00:53;;;;;;;9.23;8.30;;;23.20;99.90;;;;;;5002462;28;20025;-76
2022/06/04 13:03:31;;;;;;;9.35;8.45;;;23.10;99.90;;;;;;5012015;28;20509;-76
2022/06/04 13:06:02;;;;;;;8.23;7.50;;;23.10;99.90;;;;;;5009494;28;20053;-76
2022/06/04 13:08:40;;;;;;;9.32;8.43;;;23.10;99.90;;;;;;5002350;28;20077;-76
2022/06/04 13:11:27;;;;;;;9.20;8.30;;;23.10;99.90;;;;;;4998039;28;20041;-76
2022/06/04 13:14:29;;;;;;;8.25;7.50;;;23.20;99.90;;;;;;5011760;28;20030;-78
2022/06/04 13:16:58;;;;;;;8.25;7.55;;;22.90;99.90;;;;;;5011829;28;20030;-76
2022/06/04 13:19:32;;;;;;;8.32;7.53;;;23.10;99.90;;;;;;4998155;28;20018;-76
2022/06/04 13:21:59;;;;;;;9.20;7.10;;;23.00;99.90;;;;;;5011448;28;20030;-76